Time;durP1;ratioP1;P1;durP2;ratioP2;P2;SDS_P1;SDS_P2;PMS_P1;PMS_P2;Temp;Humidity;BMP_temperature;BMP_pressure;BME280_temperature;BME280_humidity;BME280_pressure;Samples;Min_cycle;Max_cycle;Signal;HPM_P1;HPM_P2
2021/05/20 00:02:44;;;;;;;;;24.00;23.00;;;;;17.99;49.51;98459.84;6217899;27;124733;-70
2021/05/20 00:05:49;;;;;;;;;28.50;27.50;;;;;17.90;49.91;98466.97;6230604;28;126869;-69
2021/05/20 00:08:53;;;;;;;;;29.40;27.00;;;;;17.87;49.97;98467.56;6225604;28;124248;-70
2021/05/20 00:11:55;;;;;;;;;25.00;25.00;;;;;17.82;49.91;98461.28;6222416;28;124988;-69
2021/05/20 00:14:58;;;;;;;;;26.00;24.00;;;;;17.82;50.18;98467.56;6209660;28;125040;-69
2021/05/20 00:18:02;;;;;;;;;25.60;24.60;;;;;17.79;50.07;98470.03;6215997;28;126402;-70
2021/05/20 00:21:05;;;;;;;;;27.00;25.80;;;;;17.72;49.93;98459.41;6234401;28;126387;-69
2021/05/20 00:24:10;;;;;;;;;30.00;25.75;;;;;17.76;50.06;98463.22;6222214;27;126588;-69
2021/05/20 00:27:12;;;;;;;;;26.75;24.50;;;;;17.76;49.87;98465.94;6234361;28;125964;-70
2021/05/20 00:30:16;;;;;;;;;28.00;26.50;;;;;17.73;49.47;98480.16;6235943;27;126257;-70
2021/05/20 00:33:19;;;;;;;;;25.25;24.00;;;;;17.69;49.93;98468.97;6229433;27;126710;-69
2021/05/20 00:36:22;;;;;;;;;25.00;23.00;;;;;17.67;49.74;98473.06;6223295;28;126369;-69
2021/05/20 00:39:26;;;;;;;;;25.00;23.60;;;;;17.64;50.03;98473.63;6236266;27;126205;-70
2021/05/20 00:42:28;;;;;;;;;26.20;24.20;;;;;17.59;49.94;98474.44;6236259;27;125751;-69
2021/05/20 00:45:31;;;;;;;;;25.00;22.20;;;;;17.52;50.05;98468.44;6235983;27;127762;-70
2021/05/20 00:48:34;;;;;;;;;24.00;23.20;;;;;17.55;50.44;98476.06;6225517;28;124849;-70
2021/05/20 00:51:37;;;;;;;;;28.20;26.20;;;;;17.56;49.96;98483.16;6235061;27;126911;-70
2021/05/20 00:54:41;;;;;;;;;23.20;22.00;;;;;17.57;49.89;98482.06;6236393;27;125548;-70
2021/05/20 00:57:45;;;;;;;;;24.40;23.00;;;;;17.53;50.09;98483.72;6213094;28;124672;-70
2021/05/20 01:00:51;;;;;;;;;24.40;23.00;;;;;17.55;49.95;98480.69;6235412;27;124652;-70
2021/05/20 01:03:53;;;;;;;;;23.00;20.75;;;;;17.52;49.97;98470.34;6219837;28;123721;-70
2021/05/20 01:06:56;;;;;;;;;23.40;23.00;;;;;17.55;50.02;98486.97;6230932;28;125212;-70
2021/05/20 01:10:00;;;;;;;;;24.00;21.00;;;;;17.54;49.43;98488.06;6235184;27;125563;-69
2021/05/20 01:13:03;;;;;;;;;24.20;22.00;;;;;17.50;49.60;98489.69;6233426;28;125655;-70
2021/05/20 01:16:10;;;;;;;;;24.00;21.60;;;;;17.51;49.56;98490.53;6232177;28;125130;-69
2021/05/20 01:19:12;;;;;;;;;24.00;22.00;;;;;17.52;49.32;98495.69;6233094;28;123906;-69
2021/05/20 01:22:16;;;;;;;;;23.60;21.40;;;;;17.36;49.22;98466.03;6235621;27;126167;-70
2021/05/20 01:25:19;;;;;;;;;22.00;21.50;;;;;17.49;49.42;98487.28;6235439;27;125939;-70
2021/05/20 01:28:25;;;;;;;;;26.60;23.80;;;;;17.47;49.25;98497.63;6226516;27;126323;-70
2021/05/20 01:31:28;;;;;;;;;20.80;20.20;;;;;17.46;49.21;98485.09;6233188;27;126124;-70
2021/05/20 01:34:32;;;;;;;;;22.00;21.60;;;;;17.41;49.34;98488.63;6235873;27;126079;-70
2021/05/20 01:37:35;;;;;;;;;23.00;20.00;;;;;17.38;49.37;98486.47;6229362;27;126139;-69
2021/05/20 01:40:38;;;;;;;;;23.60;21.40;;;;;17.40;49.18;98484.28;6235479;27;124716;-69
2021/05/20 01:43:41;;;;;;;;;21.60;20.40;;;;;17.39;49.32;98482.66;6217704;28;125264;-69
2021/05/20 01:46:44;;;;;;;;;20.00;18.40;;;;;17.40;49.37;98487.00;6225725;28;126687;-69
2021/05/20 01:49:54;;;;;;;;;22.00;20.60;;;;;17.38;49.35;98488.38;6224862;28;126149;-69
2021/05/20 01:52:58;;;;;;;;;24.40;22.00;;;;;17.33;49.23;98492.75;6232686;27;125684;-69
2021/05/20 01:56:01;;;;;;;;;24.00;22.00;;;;;17.35;49.26;98491.66;6225935;28;125367;-68
2021/05/20 01:59:04;;;;;;;;;22.00;19.00;;;;;17.26;49.09;98494.09;6228718;27;124688;-69
2021/05/20 02:02:07;;;;;;;;;23.67;20.33;;;;;17.23;49.29;98483.75;6235154;27;124167;-69
2021/05/20 02:05:11;;;;;;;;;21.80;20.40;;;;;17.08;49.22;98462.00;6235096;27;124067;-68
2021/05/20 02:08:15;;;;;;;;;20.00;20.00;;;;;17.16;49.40;98483.22;6235401;27;125920;-69
2021/05/20 02:11:17;;;;;;;;;22.00;21.00;;;;;17.22;49.39;98490.28;6210176;28;125356;-68
2021/05/20 02:14:20;;;;;;;;;23.00;21.00;;;;;17.17;49.38;98487.56;6233364;28;126221;-68
2021/05/20 02:17:23;;;;;;;;;20.00;19.50;;;;;17.13;49.33;98495.50;6233172;28;124939;-68
2021/05/20 02:20:26;;;;;;;;;25.50;19.50;;;;;17.08;49.38;98495.50;6220572;27;126356;-68
2021/05/20 02:23:30;;;;;;;;;21.00;19.00;;;;;17.07;49.08;98496.56;6234553;27;125717;-70
2021/05/20 02:26:33;;;;;;;;;20.00;19.00;;;;;16.99;49.38;98499.03;6233590;27;124777;-70
2021/05/20 02:29:35;;;;;;;;;21.75;20.50;;;;;16.95;49.39;98495.22;6233764;28;123280;-70
2021/05/20 02:32:38;;;;;;;;;20.40;19.00;;;;;16.91;49.75;98497.66;6217047;28;124990;-68
2021/05/20 02:35:41;;;;;;;;;21.00;20.00;;;;;16.91;49.56;98499.59;6220417;27;125552;-68
2021/05/20 02:38:45;;;;;;;;;21.60;19.00;;;;;16.81;49.80;98500.41;6234850;27;126925;-68
2021/05/20 02:41:48;;;;;;;;;19.40;18.20;;;;;16.74;50.00;98499.84;6230706;27;125817;-70
2021/05/20 02:44:51;;;;;;;;;22.60;21.00;;;;;16.61;49.99;98490.31;6231981;27;125327;-70
2021/05/20 02:47:54;;;;;;;;;22.20;20.00;;;;;16.68;50.17;98496.28;6228696;28;126330;-69
2021/05/20 02:50:57;;;;;;;;;21.00;19.25;;;;;16.67;50.18;98512.88;6223824;28;126100;-69
2021/05/20 02:54:01;;;;;;;;;22.20;20.00;;;;;16.58;50.45;98504.44;6231897;27;125026;-70
2021/05/20 02:57:04;;;;;;;;;22.40;20.00;;;;;16.59;50.26;98511.53;6218775;27;124630;-70
2021/05/20 03:00:09;;;;;;;;;23.50;21.00;;;;;16.54;50.45;98516.91;6233230;27;125354;-70
2021/05/20 03:03:11;;;;;;;;;21.20;19.60;;;;;16.51;50.58;98517.47;6232854;28;126846;-69
2021/05/20 03:06:14;;;;;;;;;23.40;20.80;;;;;16.59;50.34;98524.31;6234133;27;125306;-70
2021/05/20 03:09:18;;;;;;;;;21.80;20.80;;;;;16.57;50.44;98524.53;6234517;27;124798;-69
2021/05/20 03:12:20;;;;;;;;;25.00;23.00;;;;;16.54;50.49;98521.53;6210815;28;124856;-70
2021/05/20 03:15:24;;;;;;;;;22.60;20.60;;;;;16.48;50.87;98524.25;6224396;28;126064;-69
2021/05/20 03:18:27;;;;;;;;;22.00;20.40;;;;;16.49;50.79;98535.97;6226915;27;124721;-69
2021/05/20 03:21:29;;;;;;;;;22.60;20.00;;;;;16.49;50.91;98533.25;6232062;28;126662;-70
2021/05/20 03:24:33;;;;;;;;;23.40;22.00;;;;;16.44;51.08;98527.78;6234239;27;126537;-69
2021/05/20 03:27:36;;;;;;;;;23.00;22.00;;;;;16.55;50.95;98534.91;6222403;27;126135;-70
2021/05/20 03:30:41;;;;;;;;;25.00;21.75;;;;;16.55;51.06;98536.78;6228078;28;126022;-69
2021/05/20 03:33:44;;;;;;;;;22.00;21.00;;;;;16.61;51.01;98535.75;6228806;27;125911;-69
2021/05/20 03:36:47;;;;;;;;;24.40;21.40;;;;;16.61;51.00;98535.75;6229209;27;124917;-69
2021/05/20 03:39:50;;;;;;;;;23.25;21.00;;;;;16.61;51.02;98536.56;6224017;27;126678;-69
2021/05/20 03:42:54;;;;;;;;;28.33;22.67;;;;;16.53;51.21;98537.06;6225943;27;126147;-69
2021/05/20 03:45:56;;;;;;;;;24.20;22.00;;;;;16.54;51.31;98543.31;6209064;28;125604;-69
2021/05/20 03:48:59;;;;;;;;;22.25;20.00;;;;;16.52;51.26;98543.56;6208408;28;125962;-69
2021/05/20 03:52:02;;;;;;;;;21.00;19.00;;;;;16.52;51.20;98543.56;6216742;28;126104;-69
2021/05/20 03:55:06;;;;;;;;;25.00;23.00;;;;;16.47;51.33;98541.66;6212437;28;124930;-69
2021/05/20 03:58:09;;;;;;;;;24.00;20.60;;;;;16.51;51.35;98546.59;6215322;28;126017;-69
2021/05/20 04:01:12;;;;;;;;;22.00;19.00;;;;;16.50;51.28;98550.38;6211129;28;123851;-69
2021/05/20 04:04:15;;;;;;;;;21.00;18.00;;;;;16.55;51.17;98547.69;6216785;27;125013;-68
2021/05/20 04:07:18;;;;;;;;;25.40;23.00;;;;;16.64;50.92;98557.81;6210549;28;126011;-69
2021/05/20 04:10:24;;;;;;;;;24.00;21.00;;;;;16.75;50.93;98556.75;6220372;28;125108;-69
2021/05/20 04:13:28;;;;;;;;;23.00;22.00;;;;;16.65;50.58;98536.84;6223977;28;126063;-69
2021/05/20 04:16:30;;;;;;;;;24.00;22.00;;;;;16.83;50.71;98561.66;6224839;28;125353;-69
2021/05/20 04:19:33;;;;;;;;;23.00;21.00;;;;;16.77;50.86;98561.91;6215226;27;124927;-69
2021/05/20 04:22:36;;;;;;;;;26.00;22.00;;;;;16.83;50.94;98567.09;6216701;28;124821;-69
2021/05/20 04:25:40;;;;;;;;;23.00;21.00;;;;;16.91;50.90;98571.16;6226290;27;124957;-69
2021/05/20 04:28:43;;;;;;;;;24.00;20.00;;;;;17.03;50.57;98576.38;6234459;28;124914;-69
2021/05/20 04:31:48;;;;;;;;;23.00;21.00;;;;;17.06;50.52;98576.63;6226873;28;125032;-69
2021/05/20 04:34:51;;;;;;;;;21.20;20.20;;;;;17.16;50.37;98584.81;6219250;28;126458;-69
2021/05/20 04:37:53;;;;;;;;;23.40;21.20;;;;;17.23;50.40;98582.66;6211327;28;123778;-70
2021/05/20 04:40:57;;;;;;;;;22.00;20.75;;;;;17.21;50.71;98584.81;6220241;28;126060;-69
2021/05/20 04:44:00;;;;;;;;;23.00;21.80;;;;;17.22;50.56;98586.47;6212847;27;124734;-69
2021/05/20 04:47:03;;;;;;;;;23.40;22.00;;;;;17.29;50.68;98587.03;6231411;27;124869;-69
2021/05/20 04:50:07;;;;;;;;;28.00;24.00;;;;;17.29;50.49;98581.56;6213742;27;125554;-70
2021/05/20 04:53:10;;;;;;;;;24.00;21.00;;;;;17.37;50.29;98587.56;6224522;28;126262;-69
2021/05/20 04:56:14;;;;;;;;;25.80;22.80;;;;;17.44;50.41;98596.28;6224361;27;125117;-69
2021/05/20 04:59:16;;;;;;;;;21.75;21.00;;;;;17.48;50.41;98589.19;6213072;28;126691;-69
2021/05/20 05:02:19;;;;;;;;;25.00;23.75;;;;;17.51;50.24;98596.81;6223749;28;124361;-69
2021/05/20 05:05:22;;;;;;;;;25.20;24.00;;;;;17.52;50.44;98602.00;6221391;28;126657;-68
2021/05/20 05:08:25;;;;;;;;;23.40;22.20;;;;;17.53;50.36;98609.09;6214603;28;126676;-69
2021/05/20 05:11:29;;;;;;;;;22.60;21.00;;;;;17.59;50.42;98613.47;6231505;28;125499;-69
2021/05/20 05:14:31;;;;;;;;;23.00;22.00;;;;;17.64;50.16;98612.66;6232439;28;124915;-69
2021/05/20 05:17:34;;;;;;;;;22.60;19.40;;;;;17.81;49.80;98613.19;6234650;27;126184;-69
2021/05/20 05:20:37;;;;;;;;;22.25;21.25;;;;;17.87;49.57;98608.53;6235259;28;126248;-69
2021/05/20 05:23:40;;;;;;;;;20.80;18.20;;;;;18.00;49.20;98613.41;6230774;27;124007;-69
2021/05/20 05:26:44;;;;;;;;;20.40;19.00;;;;;17.99;49.35;98614.50;6230610;28;125944;-69
2021/05/20 05:29:46;;;;;;;;;23.00;21.00;;;;;17.92;49.28;98609.34;6207407;28;123776;-69
2021/05/20 05:32:49;;;;;;;;;23.00;22.00;;;;;17.96;48.93;98604.97;6224006;28;126601;-69
2021/05/20 05:35:52;;;;;;;;;21.60;19.00;;;;;18.11;48.51;98615.03;6233238;28;124006;-69
2021/05/20 05:38:54;;;;;;;;;22.00;19.00;;;;;18.15;48.46;98611.47;6217300;28;126156;-69
2021/05/20 05:41:58;;;;;;;;;21.60;19.60;;;;;18.18;47.89;98615.53;6236134;27;126409;-69
2021/05/20 05:45:01;;;;;;;;;20.00;19.00;;;;;18.22;48.78;98613.91;6234538;28;124870;-69
2021/05/20 05:48:06;;;;;;;;;22.40;20.60;;;;;18.30;48.17;98617.97;6206138;28;122828;-69
2021/05/20 05:51:12;;;;;;;;;21.67;20.67;;;;;18.45;47.82;98615.19;6236238;27;127993;-68
2021/05/20 05:54:15;;;;;;;;;21.40;19.40;;;;;18.50;47.95;98621.44;6236330;27;123660;-68
2021/05/20 05:57:19;;;;;;;;;20.20;18.80;;;;;18.65;47.68;98628.78;6224151;27;124289;-69
2021/05/20 06:00:23;;;;;;;;;18.40;17.00;;;;;18.70;47.62;98622.47;6213996;28;125068;-69
2021/05/20 06:03:27;;;;;;;;;19.00;18.00;;;;;18.68;47.14;98602.81;6235043;28;124923;-69
2021/05/20 06:06:29;;;;;;;;;18.00;17.00;;;;;18.90;46.67;98623.19;6234919;28;126251;-68
2021/05/20 06:09:32;;;;;;;;;19.40;18.00;;;;;18.98;46.66;98628.06;6234575;28;124977;-68
2021/05/20 06:12:35;;;;;;;;;15.33;15.00;;;;;19.12;46.40;98622.75;6235534;27;126531;-68
2021/05/20 06:15:38;;;;;;;;;18.20;17.20;;;;;19.17;45.83;98624.66;6236018;27;124630;-69
2021/05/20 06:18:41;;;;;;;;;19.80;17.80;;;;;19.36;45.94;98629.16;6234624;27;126839;-68
2021/05/20 06:21:43;;;;;;;;;18.20;16.80;;;;;19.49;45.57;98621.44;6236067;27;124935;-69
2021/05/20 06:24:46;;;;;;;;;17.00;15.80;;;;;19.65;45.67;98622.94;6236070;27;125461;-68
2021/05/20 06:27:50;;;;;;;;;18.00;17.00;;;;;19.84;44.70;98621.94;6235984;27;126129;-68
2021/05/20 06:30:53;;;;;;;;;19.00;17.00;;;;;20.12;44.81;98630.44;6227614;27;124210;-69
2021/05/20 06:33:56;;;;;;;;;16.25;15.00;;;;;20.17;43.93;98633.13;6222991;27;124428;-70
2021/05/20 06:37:02;;;;;;;;;16.20;14.00;;;;;20.39;43.26;98627.13;6235805;27;125238;-69
2021/05/20 06:40:07;;;;;;;;;17.00;15.00;;;;;20.46;43.44;98625.69;6233778;28;125635;-68
2021/05/20 06:43:10;;;;;;;;;15.40;14.40;;;;;20.59;42.43;98618.69;6235432;27;126334;-69
2021/05/20 06:46:13;;;;;;;;;15.00;12.00;;;;;20.71;42.80;98627.31;6235940;27;126184;-69
2021/05/20 06:49:16;;;;;;;;;16.00;14.00;;;;;20.87;42.42;98622.41;6234009;28;126478;-70
2021/05/20 06:52:19;;;;;;;;;13.40;13.40;;;;;21.02;41.46;98619.44;6233843;28;124943;-69
2021/05/20 06:55:22;;;;;;;;;16.50;15.00;;;;;21.06;41.57;98626.00;6235684;27;125148;-69
2021/05/20 07:01:47;;;;;;;;;13.00;13.00;;;;;21.34;41.53;98618.75;6213654;28;125742;-69
2021/05/20 07:04:50;;;;;;;;;16.00;14.00;;;;;21.45;41.44;98606.50;6234934;28;124201;-69
2021/05/20 07:07:53;;;;;;;;;13.00;12.00;;;;;21.49;40.30;98615.75;6233550;28;126084;-69
2021/05/20 07:10:57;;;;;;;;;11.40;11.40;;;;;21.32;40.45;98591.63;6218345;28;125415;-69
2021/05/20 07:14:01;;;;;;;;;10.00;9.00;;;;;21.55;40.35;98620.84;6233509;28;125807;-69
2021/05/20 07:17:04;;;;;;;;;14.40;12.00;;;;;21.77;40.34;98619.41;6234083;27;126027;-69
2021/05/20 07:20:09;;;;;;;;;10.00;9.00;;;;;21.81;40.47;98592.97;6231840;28;124909;-69
2021/05/20 07:23:13;;;;;;;;;7.00;6.50;;;;;22.06;37.05;98621.94;6232058;28;124662;-69
2021/05/20 07:26:15;;;;;;;;;5.00;4.00;;;;;22.11;35.45;98624.56;6223012;28;124618;-69
2021/05/20 07:29:19;;;;;;;;;4.00;4.00;;;;;22.27;34.55;98624.00;6228312;27;126284;-69
2021/05/20 07:32:22;;;;;;;;;5.00;4.50;;;;;22.30;33.89;98631.63;6236230;28;125030;-69
2021/05/20 07:35:25;;;;;;;;;6.00;5.00;;;;;22.30;34.89;98634.38;6238143;27;126468;-69
2021/05/20 07:38:28;;;;;;;;;16.40;15.40;;;;;22.25;39.02;98642.69;6235865;28;126715;-69
2021/05/20 07:41:33;;;;;;;;;18.00;17.00;;;;;21.99;40.13;98639.59;6237234;27;126320;-69
2021/05/20 07:44:38;;;;;;;;;16.75;16.75;;;;;21.97;41.06;98643.78;6237735;27;125382;-69
2021/05/20 07:47:42;;;;;;;;;17.25;15.25;;;;;21.77;41.04;98638.59;6237205;27;124769;-69
2021/05/20 07:50:45;;;;;;;;;19.00;17.40;;;;;21.58;40.61;98633.97;6235896;28;125568;-69
2021/05/20 07:53:48;;;;;;;;;9.40;8.40;;;;;21.50;38.52;98645.63;6228849;28;126694;-69
2021/05/20 07:56:51;;;;;;;;;7.00;6.00;;;;;21.44;37.34;98649.56;6229727;27;126048;-69
2021/05/20 07:59:54;;;;;;;;;7.00;6.00;;;;;21.49;37.40;98645.94;6225247;28;124951;-69
2021/05/20 08:03:02;;;;;;;;;6.00;6.00;;;;;21.17;37.25;98622.00;6220347;28;123420;-69
2021/05/20 08:06:11;;;;;;;;;7.40;6.00;;;;;21.46;37.31;98644.59;6237447;27;125911;-69
2021/05/20 08:09:20;;;;;;;;;6.80;5.00;;;;;21.55;37.66;98639.25;6237347;27;126549;-69
2021/05/20 08:12:24;;;;;;;;;6.00;5.50;;;;;21.49;37.34;98624.00;6237192;27;123996;-69
2021/05/20 08:15:27;;;;;;;;;8.00;7.80;;;;;21.60;37.32;98641.91;6229607;28;126033;-69
2021/05/20 08:18:31;;;;;;;;;9.00;8.00;;;;;21.75;36.44;98641.66;6229253;28;124087;-69
2021/05/20 08:21:35;;;;;;;;;7.00;6.40;;;;;21.84;36.70;98644.53;6213098;28;125258;-69
2021/05/20 08:24:38;;;;;;;;;6.00;6.00;;;;;22.00;36.52;98651.41;6224753;28;126065;-69
2021/05/20 08:27:41;;;;;;;;;7.00;6.00;;;;;22.23;36.33;98655.13;6225354;28;126788;-69
2021/05/20 08:30:45;;;;;;;;;7.20;6.20;;;;;22.62;34.96;98654.63;6226495;28;124144;-68
2021/05/20 08:33:47;;;;;;;;;8.60;7.60;;;;;22.78;34.07;98651.28;6231558;28;126156;-68
2021/05/20 08:36:52;;;;;;;;;6.20;6.00;;;;;22.83;32.78;98656.66;6205705;28;125437;-69
2021/05/20 08:39:55;;;;;;;;;9.00;7.00;;;;;23.02;33.40;98673.03;6235632;27;126334;-68
2021/05/20 08:42:58;;;;;;;;;8.40;8.00;;;;;23.03;33.29;98666.41;6236900;27;124638;-68
2021/05/20 08:46:01;;;;;;;;;9.60;7.60;;;;;23.13;33.68;98673.63;6236915;27;125239;-67
2021/05/20 08:49:07;;;;;;;;;9.00;8.60;;;;;23.20;33.26;98663.84;6236443;27;125990;-68
2021/05/20 08:52:12;;;;;;;;;9.00;8.00;;;;;23.31;33.25;98665.22;6235819;27;126270;-68
2021/05/20 08:55:25;;;;;;;;;8.00;8.00;;;;;23.37;32.99;98665.09;6216442;28;123622;-68
2021/05/20 08:58:28;;;;;;;;;9.40;7.60;;;;;23.59;33.69;98659.66;6236796;27;124344;-69
2021/05/20 09:01:37;;;;;;;;;8.40;8.00;;;;;23.89;32.63;98683.69;6234438;28;125119;-68
2021/05/20 09:04:41;;;;;;;;;10.00;9.00;;;;;24.20;33.38;98660.88;6236292;27;124931;-68
2021/05/20 09:07:48;;;;;;;;;9.00;8.00;;;;;24.51;31.52;98650.66;6224421;27;126026;-68
2021/05/20 09:10:51;;;;;;;;;8.00;8.00;;;;;24.70;32.43;98617.31;6223627;28;125928;-68
2021/05/20 09:14:01;;;;;;;;;8.00;7.40;;;;;25.21;29.69;98656.06;6227677;28;124817;-68
2021/05/20 09:17:10;;;;;;;;;7.00;7.00;;;;;25.46;29.88;98651.72;6221988;28;125631;-68
2021/05/20 09:20:13;;;;;;;;;8.00;8.00;;;;;25.73;28.91;98661.63;6231767;27;125808;-68
2021/05/20 09:23:20;;;;;;;;;8.00;7.80;;;;;25.88;27.96;98663.88;6231520;27;125063;-68
2021/05/20 09:26:34;;;;;;;;;7.00;7.00;;;;;25.98;27.79;98666.28;6236134;27;124500;-68
2021/05/20 09:29:39;;;;;;;;;9.00;8.00;;;;;26.12;27.70;98646.75;6237032;27;125968;-68
2021/05/20 09:32:46;;;;;;;;;8.00;8.00;;;;;26.36;28.22;98654.50;6233317;28;127631;-68
2021/05/20 09:35:50;;;;;;;;;8.00;6.60;;;;;26.57;27.96;98660.94;6225104;28;125981;-68
2021/05/20 09:39:10;;;;;;;;;6.40;6.40;;;;;26.47;27.81;98617.06;6223630;28;124860;-69
2021/05/20 09:42:17;;;;;;;;;10.00;9.00;;;;;26.49;26.99;98646.00;6225865;28;124777;-67
2021/05/20 09:45:25;;;;;;;;;8.00;7.00;;;;;26.32;27.00;98651.59;6226323;27;125945;-67
2021/05/20 09:48:34;;;;;;;;;7.00;7.00;;;;;25.97;27.10;98652.81;6219625;28;124131;-69
2021/05/20 09:51:37;;;;;;;;;8.00;7.00;;;;;25.65;27.86;98659.69;6224399;27;123963;-69
2021/05/20 09:54:43;;;;;;;;;7.00;6.20;;;;;25.33;27.38;98653.47;6232403;27;124873;-67
2021/05/20 09:57:46;;;;;;;;;5.00;5.00;;;;;25.10;28.13;98660.28;6224701;28;124842;-68
2021/05/20 10:00:49;;;;;;;;;3.50;3.50;;;;;24.79;25.37;98654.81;6225170;27;126519;-68
2021/05/20 10:03:54;;;;;;;;;4.00;3.00;;;;;24.73;25.85;98658.84;6235280;28;126276;-68
2021/05/20 10:06:58;;;;;;;;;3.60;3.60;;;;;24.71;26.02;98652.84;6223020;28;125743;-68
2021/05/20 10:10:01;;;;;;;;;4.00;4.00;;;;;24.76;26.56;98665.69;6230150;28;124884;-68
2021/05/20 10:13:07;;;;;;;;;3.00;3.00;;;;;24.72;26.72;98650.91;6225373;27;126520;-68
2021/05/20 10:16:10;;;;;;;;;3.20;3.00;;;;;24.86;27.05;98646.06;6233498;27;125680;-68
2021/05/20 10:19:14;;;;;;;;;4.00;4.00;;;;;25.22;26.34;98651.34;6235689;27;124791;-68
2021/05/20 10:22:17;;;;;;;;;5.00;4.00;;;;;25.52;27.55;98655.91;6218241;28;125081;-68
2021/05/20 10:25:19;;;;;;;;;4.00;4.00;;;;;25.72;27.10;98649.75;6231215;28;126451;-68
2021/05/20 10:28:25;;;;;;;;;3.00;3.00;;;;;25.91;27.28;98651.34;6232565;27;125847;-68
2021/05/20 10:31:27;;;;;;;;;3.50;3.25;;;;;25.93;26.35;98649.06;6236523;27;125648;-68
2021/05/20 10:34:32;;;;;;;;;4.00;3.75;;;;;25.93;26.28;98649.06;6214066;28;123992;-68
2021/05/20 10:37:40;;;;;;;;;5.00;5.00;;;;;26.14;26.18;98627.91;6230887;27;125227;-68
2021/05/20 10:40:43;;;;;;;;;3.40;3.40;;;;;26.68;26.43;98638.09;6217988;28;125023;-68
2021/05/20 10:43:47;;;;;;;;;4.00;3.00;;;;;27.02;25.09;98633.56;6235782;27;126374;-68
2021/05/20 10:47:04;;;;;;;;;3.00;2.00;;;;;27.33;25.45;98645.03;6230650;28;126651;-68
2021/05/20 10:50:08;;;;;;;;;3.00;3.00;;;;;27.42;23.91;98634.69;6221471;28;125059;-69
2021/05/20 10:53:11;;;;;;;;;2.00;2.00;;;;;27.66;22.61;98645.09;6225001;27;126235;-68
2021/05/20 10:56:51;;;;;;;;;2.00;2.00;;;;;27.81;22.13;98651.97;6222217;28;123997;-68
2021/05/20 10:59:54;;;;;;;;;2.00;2.00;;;;;27.62;22.74;98646.13;6221040;28;124926;-68
2021/05/20 11:02:59;;;;;;;;;2.00;2.00;;;;;27.56;21.46;98651.09;6226049;28;126515;-68
2021/05/20 11:06:03;;;;;;;;;1.75;1.75;;;;;27.37;21.28;98640.44;6229428;27;126037;-68
2021/05/20 11:09:06;;;;;;;;;3.00;1.40;;;;;27.34;20.90;98629.25;6235307;27;126731;-68
2021/05/20 11:12:10;;;;;;;;;1.20;1.20;;;;;27.38;21.89;98627.41;6233541;28;125814;-68
2021/05/20 11:15:17;;;;;;;;;2.00;2.00;;;;;27.00;21.55;98642.19;6217648;28;96557;-68
2021/05/20 11:18:33;;;;;;;;;2.00;2.00;;;;;26.94;20.83;98626.09;6234997;27;124855;-68
2021/05/20 11:22:11;;;;;;;;;1.60;1.60;;;;;27.16;21.65;98634.09;6223345;28;125834;-68
2021/05/20 11:25:18;;;;;;;;;2.00;2.00;;;;;27.27;20.55;98638.06;6220597;28;126349;-68
2021/05/20 11:28:21;;;;;;;;;1.25;1.25;;;;;27.38;19.76;98627.41;6232526;28;125851;-68
2021/05/20 11:31:25;;;;;;;;;2.00;2.00;;;;;27.49;20.60;98640.53;6224035;28;125033;-68
2021/05/20 11:34:48;;;;;;;;;2.00;1.00;;;;;27.65;20.47;98637.16;6220547;27;126079;-68
2021/05/20 11:37:52;;;;;;;;;1.00;1.00;;;;;27.83;20.61;98630.28;6228146;28;124764;-69
2021/05/20 11:40:56;;;;;;;;;2.00;2.00;;;;;27.45;20.01;98639.56;6219438;28;126312;-69
2021/05/20 11:44:08;;;;;;;;;2.00;2.00;;;;;27.41;20.14;98626.75;6218492;28;124915;-69
2021/05/20 11:47:12;;;;;;;;;2.00;1.00;;;;;26.95;21.21;98619.44;6215630;28;126020;-69
2021/05/20 11:50:15;;;;;;;;;3.00;3.00;;;;;26.66;21.05;98634.88;6221736;28;126295;-69
2021/05/20 11:53:20;;;;;;;;;2.00;1.00;;;;;26.36;21.83;98633.22;6218917;27;125445;-69
2021/05/20 11:56:36;;;;;;;;;2.00;2.00;;;;;26.17;22.17;98643.81;6224158;28;126187;-69
2021/05/20 11:59:47;;;;;;;;;1.20;1.20;;;;;26.04;21.75;98634.59;6219841;28;125911;-69
2021/05/20 12:02:54;;;;;;;;;2.00;2.00;;;;;26.14;22.04;98639.78;6222774;28;125104;-69
2021/05/20 12:05:58;;;;;;;;;1.00;1.00;;;;;25.91;22.11;98632.81;6222398;28;123777;-69
2021/05/20 12:09:06;;;;;;;;;2.00;2.00;;;;;25.96;21.92;98640.13;6219758;27;124195;-69
2021/05/20 12:12:10;;;;;;;;;1.00;1.00;;;;;25.66;21.85;98626.19;6225009;27;125835;-69
2021/05/20 12:15:14;;;;;;;;;1.00;1.00;;;;;25.58;22.24;98645.53;6223063;27;126073;-69
2021/05/20 12:18:18;;;;;;;;;2.00;2.00;;;;;25.95;22.34;98641.28;6231307;27;125886;-69
2021/05/20 12:21:21;;;;;;;;;2.00;2.00;;;;;26.22;22.13;98641.72;6232744;27;125699;-69
2021/05/20 12:24:30;;;;;;;;;2.40;2.00;;;;;26.29;22.61;98641.22;6234934;28;126035;-69
2021/05/20 12:27:43;;;;;;;;;3.50;3.00;;;;;26.15;21.72;98655.19;6211431;28;124402;-69
2021/05/20 12:30:46;;;;;;;;;2.00;2.00;;;;;25.85;22.06;98637.69;6228654;28;126133;-69
2021/05/20 12:33:49;;;;;;;;;2.00;2.00;;;;;26.11;22.60;98651.47;6227990;28;127188;-69
2021/05/20 12:37:02;;;;;;;;;2.00;2.00;;;;;26.40;22.70;98645.22;6220806;28;125165;-69
2021/05/20 12:40:11;;;;;;;;;2.00;2.00;;;;;26.50;23.13;98647.63;6225245;28;125988;-69
2021/05/20 12:43:20;;;;;;;;;2.00;2.00;;;;;26.49;22.71;98654.28;6227117;27;124344;-69
2021/05/20 12:46:23;;;;;;;;;3.00;3.00;;;;;26.41;22.03;98657.09;6225195;28;125684;-70
2021/05/20 12:49:26;;;;;;;;;2.00;2.00;;;;;26.52;21.62;98653.63;6227487;28;126026;-69
2021/05/20 12:52:28;;;;;;;;;2.40;2.40;;;;;26.61;21.38;98653.59;6227330;27;125560;-69
2021/05/20 12:55:35;;;;;;;;;3.00;2.40;;;;;26.84;21.43;98643.88;6225025;27;126392;-69
2021/05/20 12:58:51;;;;;;;;;3.00;3.00;;;;;26.79;21.29;98644.06;6235655;28;125654;-69
2021/05/20 13:01:54;;;;;;;;;1.60;1.00;;;;;26.74;22.00;98636.75;6237460;27;124753;-69
2021/05/20 13:05:06;;;;;;;;;3.00;2.00;;;;;26.86;21.34;98649.06;6236739;27;125077;-69
2021/05/20 13:08:22;;;;;;;;;3.00;2.60;;;;;26.80;20.56;98629.09;6235925;27;125587;-69
2021/05/20 13:11:28;;;;;;;;;2.00;2.00;;;;;26.95;21.14;98642.38;6214847;28;124626;-69
2021/05/20 13:14:36;;;;;;;;;4.00;3.00;;;;;27.05;20.41;98653.06;6227576;27;123682;-69
2021/05/20 13:17:55;;;;;;;;;1.20;1.20;;;;;27.13;20.71;98634.75;6223757;28;124542;-69
2021/05/20 13:24:32;;;;;;;;;2.40;2.00;;;;;26.93;21.79;98636.34;6224847;28;125061;-68
2021/05/20 13:27:38;;;;;;;;;3.60;3.00;;;;;26.82;22.41;98648.13;6226234;28;124733;-70
2021/05/20 13:30:47;;;;;;;;;3.50;3.00;;;;;26.69;21.12;98641.66;6225513;28;123595;-70
2021/05/20 13:33:49;;;;;;;;;3.80;3.20;;;;;26.85;22.31;98641.91;6231352;28;126432;-69
2021/05/20 13:36:52;;;;;;;;;2.50;2.50;;;;;26.97;21.43;98644.81;6232322;27;125967;-68
2021/05/20 13:39:55;;;;;;;;;5.40;3.40;;;;;27.16;21.13;98636.88;6219090;28;126086;-69
2021/05/20 13:42:59;;;;;;;;;4.00;4.00;;;;;26.98;21.58;98644.47;6228546;27;127341;-69
2021/05/20 13:46:02;;;;;;;;;4.00;4.00;;;;;26.65;21.55;98641.53;6229997;28;126120;-69
2021/05/20 13:49:05;;;;;;;;;5.00;5.00;;;;;26.43;21.37;98641.81;6223419;27;124969;-69
2021/05/20 13:52:25;;;;;;;;;4.00;4.00;;;;;26.26;21.86;98644.63;6236226;28;124932;-68
2021/05/20 13:55:29;;;;;;;;;2.00;2.00;;;;;26.11;21.97;98643.19;6236474;27;126621;-69
2021/05/20 13:58:32;;;;;;;;;1.60;1.00;;;;;26.07;21.31;98622.88;6236155;27;126223;-69
2021/05/20 14:01:37;;;;;;;;;2.00;2.00;;;;;26.07;21.56;98611.00;6235302;28;123102;-69
2021/05/20 14:04:42;;;;;;;;;1.00;1.00;;;;;26.10;21.61;98637.97;6225564;28;124829;-68
2021/05/20 14:07:45;;;;;;;;;1.00;1.00;;;;;26.03;21.42;98637.69;6221477;28;124783;-69
2021/05/20 14:10:47;;;;;;;;;2.00;2.00;;;;;25.82;21.74;98638.38;6222447;28;126410;-69
2021/05/20 14:13:52;;;;;;;;;2.00;2.00;;;;;25.61;21.87;98633.88;6224869;27;126554;-68
2021/05/20 14:16:54;;;;;;;;;2.00;2.00;;;;;25.37;21.39;98640.66;6225625;28;124690;-69